sensor_id;sensor_type;location;lat;lon;timestamp;pressure;altitude;pressure_sealevel;temperature;humidity
54329;BME280;40710;51.120;13.136;2022-10-16T00:00:39;99126.94;;;18.73;68.50
54329;BME280;40710;51.120;13.136;2022-10-16T00:03:04;99139.94;;;18.46;69.60
54329;BME280;40710;51.120;13.136;2022-10-16T00:05:29;99132.56;;;18.89;68.24
54329;BME280;40710;51.120;13.136;2022-10-16T00:07:54;99127.31;;;18.48;68.51
54329;BME280;40710;51.120;13.136;2022-10-16T00:10:18;99135.16;;;18.50;68.99
54329;BME280;40710;51.120;13.136;2022-10-16T00:12:43;99138.97;;;18.57;68.90
54329;BME280;40710;51.120;13.136;2022-10-16T00:15:07;99144.97;;;18.59;68.89
54329;BME280;40710;51.120;13.136;2022-10-16T00:17:32;99144.94;;;18.40;69.27
54329;BME280;40710;51.120;13.136;2022-10-16T00:19:57;99158.00;;;18.52;68.92
54329;BME280;40710;51.120;13.136;2022-10-16T00:22:22;99149.09;;;19.02;67.07
54329;BME280;40710;51.120;13.136;2022-10-16T00:24:46;99154.09;;;18.57;69.00
54329;BME280;40710;51.120;13.136;2022-10-16T00:27:11;99159.66;;;18.44;69.11
54329;BME280;40710;51.120;13.136;2022-10-16T00:29:35;99161.34;;;18.55;68.83
54329;BME280;40710;51.120;13.136;2022-10-16T00:32:00;99171.91;;;18.16;70.50
54329;BME280;40710;51.120;13.136;2022-10-16T00:34:24;99147.66;;;18.79;67.77
54329;BME280;40710;51.120;13.136;2022-10-16T00:36:49;99146.16;;;18.86;67.70
54329;BME280;40710;51.120;13.136;2022-10-16T00:39:13;99140.81;;;19.15;67.02
54329;BME280;40710;51.120;13.136;2022-10-16T00:41:38;99153.25;;;18.66;67.87
54329;BME280;40710;51.120;13.136;2022-10-16T00:44:42;99151.00;;;18.81;67.98
54329;BME280;40710;51.120;13.136;2022-10-16T00:47:11;99157.19;;;18.71;68.17
54329;BME280;40710;51.120;13.136;2022-10-16T00:49:37;99170.19;;;18.55;68.81
54329;BME280;40710;51.120;13.136;2022-10-16T00:52:02;99170.06;;;18.66;68.33
54329;BME280;40710;51.120;13.136;2022-10-16T00:54:30;99162.97;;;18.86;67.75
54329;BME280;40710;51.120;13.136;2022-10-16T00:56:58;99171.09;;;18.85;67.64
54329;BME280;40710;51.120;13.136;2022-10-16T00:59:32;99178.53;;;19.11;66.90
54329;BME280;40710;51.120;13.136;2022-10-16T01:01:57;99173.44;;;18.78;67.86
54329;BME280;40710;51.120;13.136;2022-10-16T01:04:24;99166.75;;;19.13;67.26
54329;BME280;40710;51.120;13.136;2022-10-16T01:10:07;99178.25;;;18.94;67.20
54329;BME280;40710;51.120;13.136;2022-10-16T01:15:42;99167.59;;;19.04;67.54
54329;BME280;40710;51.120;13.136;2022-10-16T01:18:28;99182.09;;;18.61;69.24
54329;BME280;40710;51.120;13.136;2022-10-16T01:21:04;99176.00;;;18.99;68.09
54329;BME280;40710;51.120;13.136;2022-10-16T01:23:48;99164.22;;;19.02;67.55
54329;BME280;40710;51.120;13.136;2022-10-16T01:26:59;99148.72;;;19.54;65.50
54329;BME280;40710;51.120;13.136;2022-10-16T01:29:31;99162.69;;;18.99;66.98
54329;BME280;40710;51.120;13.136;2022-10-16T01:32:53;99162.28;;;19.23;67.28
54329;BME280;40710;51.120;13.136;2022-10-16T01:35:25;99168.88;;;18.90;67.80
54329;BME280;40710;51.120;13.136;2022-10-16T01:37:57;99161.44;;;19.13;66.70
54329;BME280;40710;51.120;13.136;2022-10-16T01:40:25;99166.13;;;18.70;68.63
54329;BME280;40710;51.120;13.136;2022-10-16T01:43:05;99156.13;;;18.94;67.36
54329;BME280;40710;51.120;13.136;2022-10-16T01:45:33;99156.91;;;19.43;66.42
54329;BME280;40710;51.120;13.136;2022-10-16T01:48:00;99175.38;;;18.66;68.41
54329;BME280;40710;51.120;13.136;2022-10-16T01:50:28;99166.97;;;18.81;68.49
54329;BME280;40710;51.120;13.136;2022-10-16T01:52:57;99163.34;;;19.40;66.76
54329;BME280;40710;51.120;13.136;2022-10-16T01:55:29;99162.81;;;19.27;67.34
54329;BME280;40710;51.120;13.136;2022-10-16T01:57:59;99163.25;;;19.13;67.54
54329;BME280;40710;51.120;13.136;2022-10-16T02:00:27;99165.91;;;19.32;67.21
54329;BME280;40710;51.120;13.136;2022-10-16T02:02:55;99172.63;;;18.87;68.25
54329;BME280;40710;51.120;13.136;2022-10-16T02:05:30;99168.88;;;18.90;68.16
54329;BME280;40710;51.120;13.136;2022-10-16T02:07:58;99167.59;;;19.14;67.23
54329;BME280;40710;51.120;13.136;2022-10-16T02:10:24;99175.38;;;18.57;69.28
54329;BME280;40710;51.120;13.136;2022-10-16T02:13:00;99170.94;;;19.16;67.77
54329;BME280;40710;51.120;13.136;2022-10-16T02:15:26;99177.66;;;19.00;68.56
54329;BME280;40710;51.120;13.136;2022-10-16T02:17:51;99180.72;;;18.76;69.15
54329;BME280;40710;51.120;13.136;2022-10-16T02:20:15;99176.97;;;18.98;68.35
54329;BME280;40710;51.120;13.136;2022-10-16T02:22:45;99176.56;;;19.32;67.38
54329;BME280;40710;51.120;13.136;2022-10-16T02:25:19;99185.38;;;19.23;67.42
54329;BME280;40710;51.120;13.136;2022-10-16T02:28:08;99197.28;;;18.89;69.21
54329;BME280;40710;51.120;13.136;2022-10-16T02:30:49;99191.97;;;19.38;67.66
54329;BME280;40710;51.120;13.136;2022-10-16T02:33:17;99176.22;;;19.64;66.29
54329;BME280;40710;51.120;13.136;2022-10-16T02:35:46;99186.31;;;18.73;68.28
54329;BME280;40710;51.120;13.136;2022-10-16T02:38:14;99193.09;;;18.87;68.55
54329;BME280;40710;51.120;13.136;2022-10-16T02:40:39;99186.38;;;19.02;68.07
54329;BME280;40710;51.120;13.136;2022-10-16T02:43:04;99183.56;;;18.94;68.23
54329;BME280;40710;51.120;13.136;2022-10-16T02:45:29;99182.84;;;19.21;67.65
54329;BME280;40710;51.120;13.136;2022-10-16T02:47:54;99187.78;;;19.26;68.03
54329;BME280;40710;51.120;13.136;2022-10-16T02:50:18;99183.97;;;19.48;67.00
54329;BME280;40710;51.120;13.136;2022-10-16T02:52:43;99190.41;;;19.45;66.83
54329;BME280;40710;51.120;13.136;2022-10-16T02:55:08;99179.09;;;19.34;66.96
54329;BME280;40710;51.120;13.136;2022-10-16T02:57:32;99196.34;;;19.20;67.03
54329;BME280;40710;51.120;13.136;2022-10-16T02:59:58;99208.66;;;19.01;68.35
54329;BME280;40710;51.120;13.136;2022-10-16T03:02:22;99211.88;;;18.85;68.93
54329;BME280;40710;51.120;13.136;2022-10-16T03:04:47;99220.56;;;18.87;69.04
54329;BME280;40710;51.120;13.136;2022-10-16T03:07:11;99209.03;;;18.77;68.75
54329;BME280;40710;51.120;13.136;2022-10-16T03:09:36;99219.19;;;18.12;70.44
54329;BME280;40710;51.120;13.136;2022-10-16T03:12:01;99203.44;;;18.80;68.92
54329;BME280;40710;51.120;13.136;2022-10-16T03:14:25;99207.13;;;18.89;68.26
54329;BME280;40710;51.120;13.136;2022-10-16T03:16:50;99208.69;;;18.51;69.18
54329;BME280;40710;51.120;13.136;2022-10-16T03:19:16;99215.41;;;18.45;70.03
54329;BME280;40710;51.120;13.136;2022-10-16T03:21:42;99214.22;;;18.28;70.59
54329;BME280;40710;51.120;13.136;2022-10-16T03:24:07;99219.28;;;18.31;70.30
54329;BME280;40710;51.120;13.136;2022-10-16T03:26:31;99202.97;;;18.56;69.24
54329;BME280;40710;51.120;13.136;2022-10-16T03:28:56;99216.63;;;18.01;71.00
54329;BME280;40710;51.120;13.136;2022-10-16T03:31:21;99210.34;;;18.42;69.42
54329;BME280;40710;51.120;13.136;2022-10-16T03:33:46;99217.88;;;18.37;69.90
54329;BME280;40710;51.120;13.136;2022-10-16T03:36:10;99216.97;;;18.48;69.47
54329;BME280;40710;51.120;13.136;2022-10-16T03:38:35;99223.09;;;18.08;70.11
54329;BME280;40710;51.120;13.136;2022-10-16T03:40:59;99224.16;;;17.95;71.22
54329;BME280;40710;51.120;13.136;2022-10-16T03:43:24;99225.91;;;18.16;70.21
54329;BME280;40710;51.120;13.136;2022-10-16T03:45:50;99221.03;;;18.52;68.56
54329;BME280;40710;51.120;13.136;2022-10-16T03:48:15;99229.13;;;18.10;70.04
54329;BME280;40710;51.120;13.136;2022-10-16T03:50:40;99225.16;;;18.35;69.41
54329;BME280;40710;51.120;13.136;2022-10-16T03:53:05;99234.09;;;18.24;69.66
54329;BME280;40710;51.120;13.136;2022-10-16T03:55:29;99234.91;;;18.15;69.37
54329;BME280;40710;51.120;13.136;2022-10-16T03:57:54;99239.97;;;18.18;69.68
54329;BME280;40710;51.120;13.136;2022-10-16T04:00:18;99243.19;;;18.22;69.13
54329;BME280;40710;51.120;13.136;2022-10-16T04:02:43;99245.38;;;18.47;68.69
54329;BME280;40710;51.120;13.136;2022-10-16T04:05:08;99246.69;;;18.22;69.37
54329;BME280;40710;51.120;13.136;2022-10-16T04:07:33;99240.03;;;18.38;69.02
54329;BME280;40710;51.120;13.136;2022-10-16T04:09:57;99251.91;;;18.33;69.34
54329;BME280;40710;51.120;13.136;2022-10-16T04:12:23;99253.16;;;18.29;69.79
54329;BME280;40710;51.120;13.136;2022-10-16T04:14:48;99244.28;;;18.50;69.00
54329;BME280;40710;51.120;13.136;2022-10-16T04:17:12;99273.81;;;17.95;70.50
54329;BME280;40710;51.120;13.136;2022-10-16T04:19:37;99254.66;;;18.22;69.19
54329;BME280;40710;51.120;13.136;2022-10-16T04:22:01;99254.75;;;18.11;70.00
54329;BME280;40710;51.120;13.136;2022-10-16T04:24:26;99236.78;;;18.75;68.06
54329;BME280;40710;51.120;13.136;2022-10-16T04:26:50;99244.84;;;18.54;68.56
54329;BME280;40710;51.120;13.136;2022-10-16T04:29:15;99241.50;;;18.61;68.04
54329;BME280;40710;51.120;13.136;2022-10-16T04:31:39;99250.25;;;18.42;68.86
54329;BME280;40710;51.120;13.136;2022-10-16T04:34:04;99255.53;;;18.02;70.46
54329;BME280;40710;51.120;13.136;2022-10-16T04:36:29;99259.34;;;18.09;70.16
54329;BME280;40710;51.120;13.136;2022-10-16T04:38:53;99265.69;;;18.18;69.86
54329;BME280;40710;51.120;13.136;2022-10-16T04:41:18;99263.59;;;18.52;69.03
54329;BME280;40710;51.120;13.136;2022-10-16T04:43:42;99274.13;;;18.23;70.18
54329;BME280;40710;51.120;13.136;2022-10-16T04:46:07;99261.25;;;18.28;69.19
54329;BME280;40710;51.120;13.136;2022-10-16T04:48:32;99259.69;;;18.56;68.75
54329;BME280;40710;51.120;13.136;2022-10-16T04:50:56;99258.09;;;18.44;68.47
54329;BME280;40710;51.120;13.136;2022-10-16T04:53:21;99237.16;;;18.70;67.94
54329;BME280;40710;51.120;13.136;2022-10-16T04:55:46;99246.25;;;19.08;66.37
54329;BME280;40710;51.120;13.136;2022-10-16T04:58:10;99258.03;;;18.65;67.49
54329;BME280;40710;51.120;13.136;2022-10-16T05:00:35;99284.25;;;18.39;69.01
54329;BME280;40710;51.120;13.136;2022-10-16T05:03:00;99304.56;;;18.09;69.46
54329;BME280;40710;51.120;13.136;2022-10-16T05:05:25;99297.81;;;18.05;70.03
54329;BME280;40710;51.120;13.136;2022-10-16T05:07:49;99286.53;;;18.43;68.78
54329;BME280;40710;51.120;13.136;2022-10-16T05:10:14;99260.25;;;18.60;67.69
54329;BME280;40710;51.120;13.136;2022-10-16T05:12:38;99247.66;;;19.41;65.34
54329;BME280;40710;51.120;13.136;2022-10-16T05:15:03;99263.06;;;19.08;65.77
54329;BME280;40710;51.120;13.136;2022-10-16T05:17:28;99264.03;;;18.98;66.79
54329;BME280;40710;51.120;13.136;2022-10-16T05:19:52;99259.72;;;18.66;67.27
54329;BME280;40710;51.120;13.136;2022-10-16T05:22:18;99267.28;;;18.61;67.77
54329;BME280;40710;51.120;13.136;2022-10-16T05:24:42;99271.31;;;18.55;68.16
54329;BME280;40710;51.120;13.136;2022-10-16T05:27:07;99276.34;;;18.58;67.41
54329;BME280;40710;51.120;13.136;2022-10-16T05:29:32;99301.44;;;18.56;67.71
54329;BME280;40710;51.120;13.136;2022-10-16T05:31:56;99296.28;;;18.64;67.75
54329;BME280;40710;51.120;13.136;2022-10-16T05:34:21;99280.31;;;19.24;65.75
54329;BME280;40710;51.120;13.136;2022-10-16T05:36:46;99294.63;;;18.73;67.38
54329;BME280;40710;51.120;13.136;2022-10-16T05:39:10;99287.91;;;19.38;65.09
54329;BME280;40710;51.120;13.136;2022-10-16T05:41:35;99285.38;;;19.27;65.01
54329;BME280;40710;51.120;13.136;2022-10-16T05:43:59;99286.94;;;18.79;66.13
54329;BME280;40710;51.120;13.136;2022-10-16T05:46:24;99285.78;;;18.72;66.60
54329;BME280;40710;51.120;13.136;2022-10-16T05:48:51;99292.41;;;18.78;66.68
54329;BME280;40710;51.120;13.136;2022-10-16T05:51:16;99301.47;;;18.35;68.26
54329;BME280;40710;51.120;13.136;2022-10-16T05:53:41;99307.38;;;18.69;67.64
54329;BME280;40710;51.120;13.136;2022-10-16T05:56:06;99305.06;;;18.24;67.86
54329;BME280;40710;51.120;13.136;2022-10-16T05:58:34;99308.78;;;18.73;66.92
54329;BME280;40710;51.120;13.136;2022-10-16T06:01:03;99324.78;;;18.21;68.40
54329;BME280;40710;51.120;13.136;2022-10-16T06:03:28;99335.09;;;18.36;68.66
54329;BME280;40710;51.120;13.136;2022-10-16T06:05:53;99330.38;;;18.80;67.21
54329;BME280;40710;51.120;13.136;2022-10-16T06:08:20;99324.88;;;18.62;67.48
54329;BME280;40710;51.120;13.136;2022-10-16T06:10:45;99334.50;;;18.53;67.61
54329;BME280;40710;51.120;13.136;2022-10-16T06:13:11;99325.06;;;18.80;66.85
54329;BME280;40710;51.120;13.136;2022-10-16T06:15:36;99344.94;;;17.82;69.82
54329;BME280;40710;51.120;13.136;2022-10-16T06:18:00;99328.50;;;18.70;67.22
54329;BME280;40710;51.120;13.136;2022-10-16T06:20:25;99331.72;;;18.95;66.85
54329;BME280;40710;51.120;13.136;2022-10-16T06:22:50;99331.56;;;18.87;66.96
54329;BME280;40710;51.120;13.136;2022-10-16T06:25:14;99334.56;;;18.73;67.40
54329;BME280;40710;51.120;13.136;2022-10-16T06:27:40;99327.44;;;19.33;65.57
54329;BME280;40710;51.120;13.136;2022-10-16T06:30:06;99338.06;;;19.14;66.36
54329;BME280;40710;51.120;13.136;2022-10-16T06:32:30;99340.41;;;18.66;67.08
54329;BME280;40710;51.120;13.136;2022-10-16T06:34:55;99326.34;;;19.55;64.94
54329;BME280;40710;51.120;13.136;2022-10-16T06:37:20;99346.97;;;18.93;67.14
54329;BME280;40710;51.120;13.136;2022-10-16T06:39:44;99349.41;;;19.06;66.84
54329;BME280;40710;51.120;13.136;2022-10-16T06:42:09;99354.22;;;18.81;67.67
54329;BME280;40710;51.120;13.136;2022-10-16T06:44:33;99352.25;;;18.52;67.79
54329;BME280;40710;51.120;13.136;2022-10-16T06:46:58;99375.69;;;18.59;68.04
54329;BME280;40710;51.120;13.136;2022-10-16T06:49:22;99360.16;;;18.85;67.42
54329;BME280;40710;51.120;13.136;2022-10-16T06:51:47;99369.63;;;18.78;68.06
54329;BME280;40710;51.120;13.136;2022-10-16T06:54:11;99361.03;;;18.95;66.64
54329;BME280;40710;51.120;13.136;2022-10-16T06:56:36;99370.78;;;18.85;67.70
54329;BME280;40710;51.120;13.136;2022-10-16T06:59:02;99372.53;;;19.05;66.75
54329;BME280;40710;51.120;13.136;2022-10-16T07:01:27;99383.09;;;19.17;66.68
54329;BME280;40710;51.120;13.136;2022-10-16T07:03:52;99384.69;;;19.49;65.69
54329;BME280;40710;51.120;13.136;2022-10-16T07:06:19;99400.34;;;19.13;67.24
54329;BME280;40710;51.120;13.136;2022-10-16T07:08:46;99403.44;;;19.27;66.35
54329;BME280;40710;51.120;13.136;2022-10-16T07:11:14;99392.19;;;19.74;64.96
54329;BME280;40710;51.120;13.136;2022-10-16T07:13:40;99382.56;;;20.40;63.49
54329;BME280;40710;51.120;13.136;2022-10-16T07:16:13;99398.47;;;19.63;65.27
54329;BME280;40710;51.120;13.136;2022-10-16T07:18:39;99400.44;;;19.71;65.75
54329;BME280;40710;51.120;13.136;2022-10-16T07:21:06;99398.19;;;19.67;65.05
54329;BME280;40710;51.120;13.136;2022-10-16T07:23:31;99404.91;;;19.61;65.38
54329;BME280;40710;51.120;13.136;2022-10-16T07:25:56;99420.97;;;19.30;66.77
54329;BME280;40710;51.120;13.136;2022-10-16T07:28:21;99410.09;;;19.53;66.15
54329;BME280;40710;51.120;13.136;2022-10-16T07:30:46;99411.50;;;19.57;66.20
54329;BME280;40710;51.120;13.136;2022-10-16T07:33:10;99415.81;;;19.38;66.85
54329;BME280;40710;51.120;13.136;2022-10-16T07:35:35;99396.53;;;20.05;64.75
54329;BME280;40710;51.120;13.136;2022-10-16T07:38:00;99398.78;;;19.80;64.88
54329;BME280;40710;51.120;13.136;2022-10-16T07:40:24;99386.28;;;20.10;64.56
54329;BME280;40710;51.120;13.136;2022-10-16T07:42:51;99410.03;;;19.83;65.80
54329;BME280;40710;51.120;13.136;2022-10-16T07:45:16;99392.56;;;20.28;64.13
54329;BME280;40710;51.120;13.136;2022-10-16T07:47:40;99412.22;;;19.59;65.87
54329;BME280;40710;51.120;13.136;2022-10-16T07:50:05;99407.78;;;19.89;64.53
54329;BME280;40710;51.120;13.136;2022-10-16T07:52:30;99403.81;;;20.12;64.59
54329;BME280;40710;51.120;13.136;2022-10-16T07:54:54;99396.94;;;21.14;61.81
54329;BME280;40710;51.120;13.136;2022-10-16T07:57:19;99404.22;;;20.37;63.65
54329;BME280;40710;51.120;13.136;2022-10-16T07:59:44;99390.19;;;20.92;62.99
54329;BME280;40710;51.120;13.136;2022-10-16T08:02:09;99378.84;;;21.36;61.27
54329;BME280;40710;51.120;13.136;2022-10-16T08:04:33;99373.84;;;21.50;60.79
54329;BME280;40710;51.120;13.136;2022-10-16T08:06:58;99383.69;;;21.22;61.59
54329;BME280;40710;51.120;13.136;2022-10-16T08:09:23;99367.00;;;22.89;57.19
54329;BME280;40710;51.120;13.136;2022-10-16T08:11:47;99353.78;;;23.21;55.85
54329;BME280;40710;51.120;13.136;2022-10-16T08:14:12;99369.91;;;22.95;56.34
54329;BME280;40710;51.120;13.136;2022-10-16T08:16:36;99343.66;;;24.88;52.17
54329;BME280;40710;51.120;13.136;2022-10-16T08:19:01;99363.91;;;24.34;52.33
54329;BME280;40710;51.120;13.136;2022-10-16T08:21:25;99385.00;;;22.70;56.65
54329;BME280;40710;51.120;13.136;2022-10-16T08:23:50;99400.75;;;22.73;57.28
54329;BME280;40710;51.120;13.136;2022-10-16T08:26:15;99393.75;;;22.46;57.16
54329;BME280;40710;51.120;13.136;2022-10-16T08:28:39;99380.69;;;24.37;52.43
54329;BME280;40710;51.120;13.136;2022-10-16T08:31:13;99361.50;;;26.21;48.84
54329;BME280;40710;51.120;13.136;2022-10-16T08:33:40;99358.47;;;25.93;47.69
54329;BME280;40710;51.120;13.136;2022-10-16T08:36:05;99383.03;;;24.48;52.57
54329;BME280;40710;51.120;13.136;2022-10-16T08:38:30;99360.31;;;25.77;48.21
54329;BME280;40710;51.120;13.136;2022-10-16T08:49:13;99356.38;;;27.15;45.25
54329;BME280;40710;51.120;13.136;2022-10-16T08:51:40;99339.09;;;30.24;39.79
54329;BME280;40710;51.120;13.136;2022-10-16T08:54:25;99381.34;;;27.54;43.73
54329;BME280;40710;51.120;13.136;2022-10-16T08:56:54;99401.44;;;24.92;50.43
54329;BME280;40710;51.120;13.136;2022-10-16T08:59:19;99419.56;;;23.58;54.10
54329;BME280;40710;51.120;13.136;2022-10-16T09:01:46;99410.31;;;25.01;51.06
54329;BME280;40710;51.120;13.136;2022-10-16T09:08:01;99422.19;;;24.59;51.73
54329;BME280;40710;51.120;13.136;2022-10-16T09:15:47;99457.66;;;23.28;56.11
54329;BME280;40710;51.120;13.136;2022-10-16T09:18:37;99456.38;;;22.53;57.25
54329;BME280;40710;51.120;13.136;2022-10-16T09:21:19;99459.09;;;22.61;57.51
54329;BME280;40710;51.120;13.136;2022-10-16T09:23:47;99451.56;;;22.83;57.16
54329;BME280;40710;51.120;13.136;2022-10-16T09:26:14;99454.00;;;23.02;56.92
54329;BME280;40710;51.120;13.136;2022-10-16T09:28:41;99461.16;;;22.41;57.96
54329;BME280;40710;51.120;13.136;2022-10-16T09:31:13;99470.94;;;22.15;58.89
54329;BME280;40710;51.120;13.136;2022-10-16T09:33:40;99476.28;;;21.97;59.76
54329;BME280;40710;51.120;13.136;2022-10-16T09:36:05;99477.91;;;22.07;59.80
54329;BME280;40710;51.120;13.136;2022-10-16T09:38:34;99469.06;;;22.95;57.68
54329;BME280;40710;51.120;13.136;2022-10-16T09:41:13;99480.88;;;22.22;58.89
54329;BME280;40710;51.120;13.136;2022-10-16T09:46:31;99471.41;;;23.75;55.33
54329;BME280;40710;51.120;13.136;2022-10-16T09:49:05;99455.22;;;24.34;53.68
54329;BME280;40710;51.120;13.136;2022-10-16T09:51:42;99460.84;;;23.66;54.41
54329;BME280;40710;51.120;13.136;2022-10-16T09:56:33;99460.06;;;23.82;54.51
54329;BME280;40710;51.120;13.136;2022-10-16T09:59:01;99459.13;;;24.57;52.72
54329;BME280;40710;51.120;13.136;2022-10-16T10:01:36;99456.69;;;24.95;51.81
54329;BME280;40710;51.120;13.136;2022-10-16T10:04:02;99466.50;;;24.30;52.96
54329;BME280;40710;51.120;13.136;2022-10-16T10:06:30;99437.50;;;28.45;43.60
54329;BME280;40710;51.120;13.136;2022-10-16T10:09:23;99448.66;;;27.56;45.03
54329;BME280;40710;51.120;13.136;2022-10-16T10:16:49;99486.78;;;24.49;51.08
54329;BME280;40710;51.120;13.136;2022-10-16T10:19:16;99481.25;;;24.91;50.87
54329;BME280;40710;51.120;13.136;2022-10-16T10:21:41;99471.91;;;24.55;51.60
54329;BME280;40710;51.120;13.136;2022-10-16T10:24:10;99475.19;;;25.45;50.70
54329;BME280;40710;51.120;13.136;2022-10-16T10:26:37;99503.84;;;23.13;55.00
54329;BME280;40710;51.120;13.136;2022-10-16T10:29:17;99497.97;;;23.44;54.88
54329;BME280;40710;51.120;13.136;2022-10-16T10:37:19;99514.94;;;23.95;53.85
54329;BME280;40710;51.120;13.136;2022-10-16T10:40:04;99487.16;;;24.46;51.52
54329;BME280;40710;51.120;13.136;2022-10-16T10:42:39;99508.94;;;23.25;54.75
54329;BME280;40710;51.120;13.136;2022-10-16T10:50:31;99497.53;;;24.82;51.11
54329;BME280;40710;51.120;13.136;2022-10-16T11:01:50;99495.88;;;23.30;53.84
54329;BME280;40710;51.120;13.136;2022-10-16T11:07:23;99514.50;;;23.31;54.90
54329;BME280;40710;51.120;13.136;2022-10-16T11:09:58;99510.47;;;23.62;53.85
54329;BME280;40710;51.120;13.136;2022-10-16T11:12:31;99506.88;;;23.95;53.23
54329;BME280;40710;51.120;13.136;2022-10-16T11:15:21;99507.47;;;24.32;53.51
54329;BME280;40710;51.120;13.136;2022-10-16T11:17:57;99504.25;;;24.20;52.88
54329;BME280;40710;51.120;13.136;2022-10-16T11:20:28;99483.41;;;26.15;47.71
54329;BME280;40710;51.120;13.136;2022-10-16T11:23:05;99495.84;;;24.97;49.89
54329;BME280;40710;51.120;13.136;2022-10-16T11:25:33;99504.47;;;24.60;51.14
54329;BME280;40710;51.120;13.136;2022-10-16T11:28:03;99529.50;;;23.50;54.10
54329;BME280;40710;51.120;13.136;2022-10-16T11:30:44;99526.06;;;24.17;53.13
54329;BME280;40710;51.120;13.136;2022-10-16T11:36:08;99527.34;;;23.88;53.09
54329;BME280;40710;51.120;13.136;2022-10-16T11:38:47;99529.59;;;24.34;52.62
54329;BME280;40710;51.120;13.136;2022-10-16T11:41:25;99515.81;;;25.03;50.91
54329;BME280;40710;51.120;13.136;2022-10-16T11:44:16;99510.94;;;25.06;50.53
54329;BME280;40710;51.120;13.136;2022-10-16T11:46:52;99540.63;;;24.06;52.61
54329;BME280;40710;51.120;13.136;2022-10-16T11:49:26;99541.91;;;23.86;53.55
54329;BME280;40710;51.120;13.136;2022-10-16T11:52:07;99534.28;;;23.30;55.19
54329;BME280;40710;51.120;13.136;2022-10-16T11:54:48;99525.53;;;24.05;53.89
54329;BME280;40710;51.120;13.136;2022-10-16T11:57:28;99532.81;;;24.38;53.04
54329;BME280;40710;51.120;13.136;2022-10-16T12:00:05;99536.94;;;23.99;54.04
54329;BME280;40710;51.120;13.136;2022-10-16T12:05:46;99563.06;;;23.02;55.82
54329;BME280;40710;51.120;13.136;2022-10-16T12:08:16;99554.63;;;23.41;54.12
54329;BME280;40710;51.120;13.136;2022-10-16T12:10:44;99537.41;;;23.86;53.15
54329;BME280;40710;51.120;13.136;2022-10-16T12:13:38;99528.75;;;24.17;52.73
54329;BME280;40710;51.120;13.136;2022-10-16T12:18:32;99547.91;;;23.37;55.35
54329;BME280;40710;51.120;13.136;2022-10-16T12:20:59;99554.69;;;23.57;55.06
54329;BME280;40710;51.120;13.136;2022-10-16T12:23:29;99552.69;;;23.59;54.69
54329;BME280;40710;51.120;13.136;2022-10-16T12:25:56;99552.97;;;23.48;54.38
54329;BME280;40710;51.120;13.136;2022-10-16T12:28:27;99542.00;;;24.35;53.05
54329;BME280;40710;51.120;13.136;2022-10-16T12:30:58;99543.75;;;23.16;55.48
54329;BME280;40710;51.120;13.136;2022-10-16T12:33:29;99550.75;;;23.78;54.05
54329;BME280;40710;51.120;13.136;2022-10-16T12:35:56;99540.03;;;24.37;52.45
54329;BME280;40710;51.120;13.136;2022-10-16T12:38:37;99548.31;;;23.93;53.92
54329;BME280;40710;51.120;13.136;2022-10-16T12:41:06;99552.00;;;23.57;54.12
54329;BME280;40710;51.120;13.136;2022-10-16T12:43:41;99547.84;;;24.14;52.70
54329;BME280;40710;51.120;13.136;2022-10-16T12:48:34;99548.13;;;23.52;54.02
54329;BME280;40710;51.120;13.136;2022-10-16T12:51:51;99551.53;;;24.05;53.82
54329;BME280;40710;51.120;13.136;2022-10-16T12:54:19;99574.06;;;23.43;55.36
54329;BME280;40710;51.120;13.136;2022-10-16T12:56:57;99568.81;;;23.68;54.96
54329;BME280;40710;51.120;13.136;2022-10-16T12:59:58;99556.22;;;24.03;53.50
54329;BME280;40710;51.120;13.136;2022-10-16T13:08:57;99563.56;;;23.92;54.16
54329;BME280;40710;51.120;13.136;2022-10-16T13:14:00;99549.81;;;24.55;52.33
54329;BME280;40710;51.120;13.136;2022-10-16T13:16:48;99555.63;;;24.33;52.89
54329;BME280;40710;51.120;13.136;2022-10-16T13:19:38;99540.56;;;24.90;52.35
54329;BME280;40710;51.120;13.136;2022-10-16T13:22:30;99541.88;;;25.10;51.48
54329;BME280;40710;51.120;13.136;2022-10-16T13:28:05;99555.31;;;24.53;53.48
54329;BME280;40710;51.120;13.136;2022-10-16T13:30:38;99565.16;;;24.28;53.92
54329;BME280;40710;51.120;13.136;2022-10-16T13:33:13;99550.13;;;25.01;52.03
54329;BME280;40710;51.120;13.136;2022-10-16T13:35:48;99557.31;;;24.43;52.57
54329;BME280;40710;51.120;13.136;2022-10-16T13:38:17;99561.84;;;24.50;52.69
54329;BME280;40710;51.120;13.136;2022-10-16T13:41:03;99561.28;;;24.06;52.96
54329;BME280;40710;51.120;13.136;2022-10-16T13:43:41;99571.94;;;23.81;54.09
54329;BME280;40710;51.120;13.136;2022-10-16T13:46:17;99558.00;;;24.86;51.78
54329;BME280;40710;51.120;13.136;2022-10-16T13:48:42;99564.22;;;24.70;51.75
54329;BME280;40710;51.120;13.136;2022-10-16T13:51:18;99571.06;;;24.23;52.52
54329;BME280;40710;51.120;13.136;2022-10-16T13:53:44;99565.25;;;24.94;51.43
54329;BME280;40710;51.120;13.136;2022-10-16T13:56:19;99562.53;;;24.44;52.23
54329;BME280;40710;51.120;13.136;2022-10-16T13:58:45;99548.38;;;25.80;49.63
54329;BME280;40710;51.120;13.136;2022-10-16T14:01:29;99549.53;;;25.46;50.52
54329;BME280;40710;51.120;13.136;2022-10-16T14:04:02;99539.47;;;26.19;48.68
54329;BME280;40710;51.120;13.136;2022-10-16T14:06:28;99546.63;;;26.27;49.17
54329;BME280;40710;51.120;13.136;2022-10-16T14:09:00;99536.22;;;27.23;45.76
54329;BME280;40710;51.120;13.136;2022-10-16T14:11:26;99531.91;;;28.46;43.94
54329;BME280;40710;51.120;13.136;2022-10-16T14:13:51;99547.75;;;26.33;47.44
54329;BME280;40710;51.120;13.136;2022-10-16T14:16:21;99543.34;;;26.86;46.71
54329;BME280;40710;51.120;13.136;2022-10-16T14:18:57;99545.56;;;26.83;46.92